This is the latest recevied weather packets stored in our database for station/object VK5GR-12. If no packets are shown the sender has not sent any weather packets the latest 10 day(s).
| Time | Temp. | Humidity | Pressure | Rain* | Wind** | Luminosity | Snow |
|---|---|---|---|---|---|---|---|
| 1788492999 | 18.33° C | 71% | 1012.3 hPa | 0 mm | - | 183 W/m² | - |
| 1788492096 | 18.33° C | 76% | 1012.6 hPa | 0 mm | - | 630 W/m² | - |
| 1788491193 | 16.67° C | 90% | 1012.8 hPa | 0 mm | - | 685 W/m² | - |
| 1788490290 | 14.44° C | 93% | 1012.9 hPa | 0 mm | - | 248 W/m² | - |
| 1788489389 | 14.44° C | 92% | 1013.9 hPa | 7.87 mm | - | 144 W/m² | - |
| 1788488488 | 13.89° C | 91% | 1015 hPa | 3.05 mm | - | 47 W/m² | - |
| 1788487586 | 13.89° C | 89% | 1016.3 hPa | 3.05 mm | - | 67 W/m² | - |
| 1788486685 | 13.89° C | 87% | 1015.3 hPa | 3.05 mm | - | 54 W/m² | - |
| 1788485783 | 14.44° C | 83% | 1015.7 hPa | 1.78 mm | - | 37 W/m² | - |
| 1788484878 | 15° C | 79% | 1015.7 hPa | 0 mm | - | 77 W/m² | - |
| 1788483975 | 15.56° C | 76% | 1015.8 hPa | 0 mm | - | 116 W/m² | - |
| 1788483073 | 16.11° C | 72% | 1016.3 hPa | 0 mm | - | 96 W/m² | - |
| 1788482170 | 16.11° C | 71% | 1016.8 hPa | 0 mm | - | 90 W/m² | - |
| 1788481268 | 16.67° C | 70% | 1016.9 hPa | 0 mm | - | 105 W/m² | - |
| 1788480362 | 17.22° C | 67% | 1016.2 hPa | 0 mm | - | 168 W/m² | - |
| 1788479460 | 16.67° C | 66% | 1016.2 hPa | 0 mm | - | 221 W/m² | - |
| 1788478559 | 16.67° C | 66% | 1016.3 hPa | 0 mm | - | 157 W/m² | - |
| 1788477656 | 16.67° C | 68% | 1016.7 hPa | 0 mm | - | 245 W/m² | - |
| 1788476753 | 15.56° C | 71% | 1016.8 hPa | 0 mm | - | 125 W/m² | - |
| 1788475851 | 15.56° C | 72% | 1016.8 hPa | 0 mm | - | 62 W/m² | - |
| 1788474948 | 13.89° C | 79% | 1016.8 hPa | 0 mm | - | 115 W/m² | - |
| 1788474047 | 14.44° C | 77% | 1016.8 hPa | 0 mm | - | 53 W/m² | - |
| 1788473145 | 14.44° C | 77% | 1016.7 hPa | 0 mm | - | 50 W/m² | - |
| 1788472244 | 13.33° C | 81% | 1016.3 hPa | 0 mm | - | 48 W/m² | - |
| 1788471340 | 12.78° C | 82% | 1016.6 hPa | 0 mm | - | 15 W/m² | - |
* Rain latest hour (hover to see other rain measurements)
** Current wind speed in m/s (hover to see current wind gust speed)